sensor_id;sensor_type;location;lat;lon;timestamp;temperature;humidity
15630;DHT22;7914;50.842;0.166;2023-07-28T00:01:36;17.40;100.00
15630;DHT22;7914;50.842;0.166;2023-07-28T00:04:02;17.30;100.00
15630;DHT22;7914;50.842;0.166;2023-07-28T00:06:32;17.30;100.00
15630;DHT22;7914;50.842;0.166;2023-07-28T00:08:58;17.30;100.00
15630;DHT22;7914;50.842;0.166;2023-07-28T00:11:24;17.30;100.00
15630;DHT22;7914;50.842;0.166;2023-07-28T00:13:50;17.30;100.00
15630;DHT22;7914;50.842;0.166;2023-07-28T00:16:16;17.30;100.00
15630;DHT22;7914;50.842;0.166;2023-07-28T00:18:41;17.20;100.00
15630;DHT22;7914;50.842;0.166;2023-07-28T00:21:07;17.20;100.00
15630;DHT22;7914;50.842;0.166;2023-07-28T00:23:33;17.10;100.00
15630;DHT22;7914;50.842;0.166;2023-07-28T00:25:58;17.00;100.00
15630;DHT22;7914;50.842;0.166;2023-07-28T00:28:24;17.00;100.00
15630;DHT22;7914;50.842;0.166;2023-07-28T00:30:50;16.90;100.00
15630;DHT22;7914;50.842;0.166;2023-07-28T00:33:16;16.90;100.00
15630;DHT22;7914;50.842;0.166;2023-07-28T00:35:42;16.90;100.00
15630;DHT22;7914;50.842;0.166;2023-07-28T00:38:08;16.90;100.00
15630;DHT22;7914;50.842;0.166;2023-07-28T00:40:37;16.90;100.00
15630;DHT22;7914;50.842;0.166;2023-07-28T00:43:03;16.90;100.00
15630;DHT22;7914;50.842;0.166;2023-07-28T00:45:31;16.90;100.00
15630;DHT22;7914;50.842;0.166;2023-07-28T00:47:58;16.90;100.00
15630;DHT22;7914;50.842;0.166;2023-07-28T00:50:24;16.90;100.00
15630;DHT22;7914;50.842;0.166;2023-07-28T00:52:51;16.90;100.00
15630;DHT22;7914;50.842;0.166;2023-07-28T00:55:16;17.00;100.00
15630;DHT22;7914;50.842;0.166;2023-07-28T00:57:42;17.00;100.00
15630;DHT22;7914;50.842;0.166;2023-07-28T01:00:09;17.00;100.00
15630;DHT22;7914;50.842;0.166;2023-07-28T01:02:36;17.10;100.00
15630;DHT22;7914;50.842;0.166;2023-07-28T01:05:03;17.10;100.00
15630;DHT22;7914;50.842;0.166;2023-07-28T01:07:53;17.10;100.00
15630;DHT22;7914;50.842;0.166;2023-07-28T01:10:28;17.20;100.00
15630;DHT22;7914;50.842;0.166;2023-07-28T01:12:55;17.20;100.00
15630;DHT22;7914;50.842;0.166;2023-07-28T01:15:21;17.20;100.00
15630;DHT22;7914;50.842;0.166;2023-07-28T01:17:46;17.20;100.00
15630;DHT22;7914;50.842;0.166;2023-07-28T01:20:12;17.20;100.00
15630;DHT22;7914;50.842;0.166;2023-07-28T01:23:02;17.20;100.00
15630;DHT22;7914;50.842;0.166;2023-07-28T01:25:43;17.20;100.00
15630;DHT22;7914;50.842;0.166;2023-07-28T01:28:13;17.20;100.00
15630;DHT22;7914;50.842;0.166;2023-07-28T01:30:39;17.20;100.00
15630;DHT22;7914;50.842;0.166;2023-07-28T01:33:08;17.20;100.00
15630;DHT22;7914;50.842;0.166;2023-07-28T01:35:36;17.20;100.00
15630;DHT22;7914;50.842;0.166;2023-07-28T01:38:03;17.30;100.00
15630;DHT22;7914;50.842;0.166;2023-07-28T01:40:29;17.20;100.00
15630;DHT22;7914;50.842;0.166;2023-07-28T01:42:54;17.30;100.00
15630;DHT22;7914;50.842;0.166;2023-07-28T01:45:20;17.30;100.00
15630;DHT22;7914;50.842;0.166;2023-07-28T01:47:46;17.30;100.00
15630;DHT22;7914;50.842;0.166;2023-07-28T01:50:11;17.30;100.00
15630;DHT22;7914;50.842;0.166;2023-07-28T01:52:37;17.30;100.00
15630;DHT22;7914;50.842;0.166;2023-07-28T01:55:03;17.30;100.00
15630;DHT22;7914;50.842;0.166;2023-07-28T01:57:32;17.30;100.00
15630;DHT22;7914;50.842;0.166;2023-07-28T01:59:58;17.30;100.00
15630;DHT22;7914;50.842;0.166;2023-07-28T02:02:24;17.30;100.00
15630;DHT22;7914;50.842;0.166;2023-07-28T02:04:50;17.30;100.00
15630;DHT22;7914;50.842;0.166;2023-07-28T02:07:16;17.40;100.00
15630;DHT22;7914;50.842;0.166;2023-07-28T02:09:42;17.30;100.00
15630;DHT22;7914;50.842;0.166;2023-07-28T02:12:07;17.30;100.00
15630;DHT22;7914;50.842;0.166;2023-07-28T02:14:33;17.30;100.00
15630;DHT22;7914;50.842;0.166;2023-07-28T02:16:59;17.30;100.00
15630;DHT22;7914;50.842;0.166;2023-07-28T02:19:25;17.40;100.00
15630;DHT22;7914;50.842;0.166;2023-07-28T02:21:51;17.40;100.00
15630;DHT22;7914;50.842;0.166;2023-07-28T02:24:16;17.40;100.00
15630;DHT22;7914;50.842;0.166;2023-07-28T02:26:42;17.40;100.00
15630;DHT22;7914;50.842;0.166;2023-07-28T02:29:08;17.30;100.00
15630;DHT22;7914;50.842;0.166;2023-07-28T02:31:33;17.30;100.00
15630;DHT22;7914;50.842;0.166;2023-07-28T02:33:59;17.30;100.00
15630;DHT22;7914;50.842;0.166;2023-07-28T02:36:25;17.30;100.00
15630;DHT22;7914;50.842;0.166;2023-07-28T02:38:51;17.30;100.00
15630;DHT22;7914;50.842;0.166;2023-07-28T02:41:17;17.40;100.00
15630;DHT22;7914;50.842;0.166;2023-07-28T02:43:42;17.30;100.00
15630;DHT22;7914;50.842;0.166;2023-07-28T02:46:08;17.30;100.00
15630;DHT22;7914;50.842;0.166;2023-07-28T02:48:34;17.30;100.00
15630;DHT22;7914;50.842;0.166;2023-07-28T02:50:59;17.30;100.00
15630;DHT22;7914;50.842;0.166;2023-07-28T02:53:25;17.30;100.00
15630;DHT22;7914;50.842;0.166;2023-07-28T02:55:51;17.30;100.00
15630;DHT22;7914;50.842;0.166;2023-07-28T02:58:16;17.30;100.00
15630;DHT22;7914;50.842;0.166;2023-07-28T03:00:43;17.30;100.00
15630;DHT22;7914;50.842;0.166;2023-07-28T03:03:10;17.30;100.00
15630;DHT22;7914;50.842;0.166;2023-07-28T03:05:37;17.30;100.00
15630;DHT22;7914;50.842;0.166;2023-07-28T03:08:03;17.40;100.00
15630;DHT22;7914;50.842;0.166;2023-07-28T03:10:29;17.40;100.00
15630;DHT22;7914;50.842;0.166;2023-07-28T03:12:55;17.40;100.00
15630;DHT22;7914;50.842;0.166;2023-07-28T03:15:21;17.40;100.00
15630;DHT22;7914;50.842;0.166;2023-07-28T03:17:48;17.30;100.00
15630;DHT22;7914;50.842;0.166;2023-07-28T03:20:14;17.40;100.00
15630;DHT22;7914;50.842;0.166;2023-07-28T03:22:39;17.40;100.00
15630;DHT22;7914;50.842;0.166;2023-07-28T03:25:05;17.40;100.00
15630;DHT22;7914;50.842;0.166;2023-07-28T03:27:31;17.40;100.00
15630;DHT22;7914;50.842;0.166;2023-07-28T03:29:57;17.40;100.00
15630;DHT22;7914;50.842;0.166;2023-07-28T03:32:22;17.40;100.00
15630;DHT22;7914;50.842;0.166;2023-07-28T03:34:48;17.40;100.00
15630;DHT22;7914;50.842;0.166;2023-07-28T03:37:14;17.40;100.00
15630;DHT22;7914;50.842;0.166;2023-07-28T03:39:40;17.30;100.00
15630;DHT22;7914;50.842;0.166;2023-07-28T03:42:06;17.40;100.00
15630;DHT22;7914;50.842;0.166;2023-07-28T03:44:31;17.30;100.00
15630;DHT22;7914;50.842;0.166;2023-07-28T03:46:57;17.30;100.00
15630;DHT22;7914;50.842;0.166;2023-07-28T03:49:23;17.30;100.00
15630;DHT22;7914;50.842;0.166;2023-07-28T03:51:49;17.30;100.00
15630;DHT22;7914;50.842;0.166;2023-07-28T03:54:14;17.40;100.00
15630;DHT22;7914;50.842;0.166;2023-07-28T03:56:40;17.40;100.00
15630;DHT22;7914;50.842;0.166;2023-07-28T03:59:06;17.40;100.00
15630;DHT22;7914;50.842;0.166;2023-07-28T04:01:31;17.40;100.00
15630;DHT22;7914;50.842;0.166;2023-07-28T04:03:57;17.40;100.00
15630;DHT22;7914;50.842;0.166;2023-07-28T04:06:43;17.40;100.00
15630;DHT22;7914;50.842;0.166;2023-07-28T04:09:10;17.40;100.00
15630;DHT22;7914;50.842;0.166;2023-07-28T04:11:37;17.40;100.00
15630;DHT22;7914;50.842;0.166;2023-07-28T04:14:03;17.40;100.00
15630;DHT22;7914;50.842;0.166;2023-07-28T04:16:29;17.40;100.00
15630;DHT22;7914;50.842;0.166;2023-07-28T04:18:54;17.40;100.00
15630;DHT22;7914;50.842;0.166;2023-07-28T04:21:20;17.50;100.00
15630;DHT22;7914;50.842;0.166;2023-07-28T04:23:46;17.40;100.00
15630;DHT22;7914;50.842;0.166;2023-07-28T04:26:12;17.40;100.00
15630;DHT22;7914;50.842;0.166;2023-07-28T04:28:37;17.40;100.00
15630;DHT22;7914;50.842;0.166;2023-07-28T04:31:03;17.50;100.00
15630;DHT22;7914;50.842;0.166;2023-07-28T04:33:29;17.50;100.00
15630;DHT22;7914;50.842;0.166;2023-07-28T04:35:54;17.50;100.00
15630;DHT22;7914;50.842;0.166;2023-07-28T04:38:20;17.40;100.00
15630;DHT22;7914;50.842;0.166;2023-07-28T04:40:46;17.40;100.00
15630;DHT22;7914;50.842;0.166;2023-07-28T04:43:11;17.50;100.00
15630;DHT22;7914;50.842;0.166;2023-07-28T04:45:37;17.50;100.00
15630;DHT22;7914;50.842;0.166;2023-07-28T04:48:03;17.50;100.00
15630;DHT22;7914;50.842;0.166;2023-07-28T04:50:29;17.50;100.00
15630;DHT22;7914;50.842;0.166;2023-07-28T04:52:55;17.50;100.00
15630;DHT22;7914;50.842;0.166;2023-07-28T04:55:20;17.50;100.00
15630;DHT22;7914;50.842;0.166;2023-07-28T04:57:46;17.40;100.00
15630;DHT22;7914;50.842;0.166;2023-07-28T05:00:12;17.40;100.00
15630;DHT22;7914;50.842;0.166;2023-07-28T05:02:38;17.40;100.00
15630;DHT22;7914;50.842;0.166;2023-07-28T05:05:04;17.40;100.00
15630;DHT22;7914;50.842;0.166;2023-07-28T05:07:30;17.30;100.00
15630;DHT22;7914;50.842;0.166;2023-07-28T05:09:56;17.40;100.00
15630;DHT22;7914;50.842;0.166;2023-07-28T05:12:21;17.40;100.00
15630;DHT22;7914;50.842;0.166;2023-07-28T05:14:47;17.30;100.00
15630;DHT22;7914;50.842;0.166;2023-07-28T05:17:13;17.30;100.00
15630;DHT22;7914;50.842;0.166;2023-07-28T05:19:39;17.30;100.00
15630;DHT22;7914;50.842;0.166;2023-07-28T05:22:04;17.30;100.00
15630;DHT22;7914;50.842;0.166;2023-07-28T05:24:33;17.30;100.00
15630;DHT22;7914;50.842;0.166;2023-07-28T05:26:59;17.30;100.00
15630;DHT22;7914;50.842;0.166;2023-07-28T05:29:24;17.30;100.00
15630;DHT22;7914;50.842;0.166;2023-07-28T05:31:50;17.30;100.00
15630;DHT22;7914;50.842;0.166;2023-07-28T05:34:16;17.30;100.00
15630;DHT22;7914;50.842;0.166;2023-07-28T05:36:43;17.30;100.00
15630;DHT22;7914;50.842;0.166;2023-07-28T05:39:09;17.30;100.00
15630;DHT22;7914;50.842;0.166;2023-07-28T05:41:36;17.40;100.00
15630;DHT22;7914;50.842;0.166;2023-07-28T05:44:03;17.40;100.00
15630;DHT22;7914;50.842;0.166;2023-07-28T05:46:29;17.40;100.00
15630;DHT22;7914;50.842;0.166;2023-07-28T05:48:56;17.40;100.00
15630;DHT22;7914;50.842;0.166;2023-07-28T05:51:22;17.40;100.00
15630;DHT22;7914;50.842;0.166;2023-07-28T05:53:49;17.40;100.00
15630;DHT22;7914;50.842;0.166;2023-07-28T05:56:16;17.40;100.00
15630;DHT22;7914;50.842;0.166;2023-07-28T05:58:41;17.40;100.00
15630;DHT22;7914;50.842;0.166;2023-07-28T06:01:07;17.50;100.00
15630;DHT22;7914;50.842;0.166;2023-07-28T06:03:33;17.50;100.00
15630;DHT22;7914;50.842;0.166;2023-07-28T06:05:58;17.50;100.00
15630;DHT22;7914;50.842;0.166;2023-07-28T06:08:24;17.50;100.00
15630;DHT22;7914;50.842;0.166;2023-07-28T06:10:50;17.50;100.00
15630;DHT22;7914;50.842;0.166;2023-07-28T06:13:15;17.60;100.00
15630;DHT22;7914;50.842;0.166;2023-07-28T06:15:42;17.70;100.00
15630;DHT22;7914;50.842;0.166;2023-07-28T06:18:08;17.80;100.00
15630;DHT22;7914;50.842;0.166;2023-07-28T06:20:34;17.80;100.00
15630;DHT22;7914;50.842;0.166;2023-07-28T06:23:00;17.80;100.00
15630;DHT22;7914;50.842;0.166;2023-07-28T06:25:26;17.80;100.00
15630;DHT22;7914;50.842;0.166;2023-07-28T06:27:52;18.00;100.00
15630;DHT22;7914;50.842;0.166;2023-07-28T06:30:18;18.10;100.00
15630;DHT22;7914;50.842;0.166;2023-07-28T06:32:44;18.30;100.00
15630;DHT22;7914;50.842;0.166;2023-07-28T06:35:09;18.60;100.00
15630;DHT22;7914;50.842;0.166;2023-07-28T06:37:38;19.10;100.00
15630;DHT22;7914;50.842;0.166;2023-07-28T06:40:07;19.50;100.00
15630;DHT22;7914;50.842;0.166;2023-07-28T06:42:35;19.50;100.00
15630;DHT22;7914;50.842;0.166;2023-07-28T06:45:03;19.60;100.00
15630;DHT22;7914;50.842;0.166;2023-07-28T06:47:29;19.60;100.00
15630;DHT22;7914;50.842;0.166;2023-07-28T06:49:54;19.80;100.00
15630;DHT22;7914;50.842;0.166;2023-07-28T06:52:20;20.00;100.00
15630;DHT22;7914;50.842;0.166;2023-07-28T06:54:46;20.10;100.00
15630;DHT22;7914;50.842;0.166;2023-07-28T06:57:15;20.10;100.00
15630;DHT22;7914;50.842;0.166;2023-07-28T06:59:41;20.20;100.00
15630;DHT22;7914;50.842;0.166;2023-07-28T07:02:07;20.30;100.00
15630;DHT22;7914;50.842;0.166;2023-07-28T07:04:34;20.20;100.00
15630;DHT22;7914;50.842;0.166;2023-07-28T07:07:00;20.20;100.00
15630;DHT22;7914;50.842;0.166;2023-07-28T07:09:25;20.10;100.00
15630;DHT22;7914;50.842;0.166;2023-07-28T07:11:51;20.30;100.00
15630;DHT22;7914;50.842;0.166;2023-07-28T07:14:17;20.30;100.00
15630;DHT22;7914;50.842;0.166;2023-07-28T07:16:43;20.30;100.00
15630;DHT22;7914;50.842;0.166;2023-07-28T07:19:09;20.20;100.00
15630;DHT22;7914;50.842;0.166;2023-07-28T07:21:34;20.30;100.00
15630;DHT22;7914;50.842;0.166;2023-07-28T07:24:02;20.20;100.00
15630;DHT22;7914;50.842;0.166;2023-07-28T07:26:28;20.10;100.00
15630;DHT22;7914;50.842;0.166;2023-07-28T07:28:53;19.70;100.00
15630;DHT22;7914;50.842;0.166;2023-07-28T07:31:19;19.40;100.00
15630;DHT22;7914;50.842;0.166;2023-07-28T07:33:45;19.10;100.00
15630;DHT22;7914;50.842;0.166;2023-07-28T07:36:18;19.00;100.00
15630;DHT22;7914;50.842;0.166;2023-07-28T07:38:45;18.90;100.00
15630;DHT22;7914;50.842;0.166;2023-07-28T07:41:15;18.90;100.00
15630;DHT22;7914;50.842;0.166;2023-07-28T07:43:49;18.90;100.00
15630;DHT22;7914;50.842;0.166;2023-07-28T07:46:16;18.90;100.00
15630;DHT22;7914;50.842;0.166;2023-07-28T07:48:42;19.00;100.00
15630;DHT22;7914;50.842;0.166;2023-07-28T07:51:08;19.10;100.00
15630;DHT22;7914;50.842;0.166;2023-07-28T07:53:34;19.20;100.00
15630;DHT22;7914;50.842;0.166;2023-07-28T07:56:02;19.20;100.00
15630;DHT22;7914;50.842;0.166;2023-07-28T07:58:28;19.30;100.00
15630;DHT22;7914;50.842;0.166;2023-07-28T08:00:55;19.60;100.00
15630;DHT22;7914;50.842;0.166;2023-07-28T08:03:21;20.00;100.00
15630;DHT22;7914;50.842;0.166;2023-07-28T08:05:46;20.20;100.00
15630;DHT22;7914;50.842;0.166;2023-07-28T08:08:13;20.50;100.00
15630;DHT22;7914;50.842;0.166;2023-07-28T08:10:43;20.80;100.00
15630;DHT22;7914;50.842;0.166;2023-07-28T08:13:08;20.90;100.00
15630;DHT22;7914;50.842;0.166;2023-07-28T08:15:34;20.70;100.00
15630;DHT22;7914;50.842;0.166;2023-07-28T08:18:00;20.60;100.00
15630;DHT22;7914;50.842;0.166;2023-07-28T08:20:25;20.50;100.00
15630;DHT22;7914;50.842;0.166;2023-07-28T08:22:52;20.30;100.00
15630;DHT22;7914;50.842;0.166;2023-07-28T08:25:17;20.00;100.00
15630;DHT22;7914;50.842;0.166;2023-07-28T08:27:44;19.90;100.00
15630;DHT22;7914;50.842;0.166;2023-07-28T08:30:10;19.90;100.00
15630;DHT22;7914;50.842;0.166;2023-07-28T08:32:36;19.80;100.00
15630;DHT22;7914;50.842;0.166;2023-07-28T08:35:02;19.70;100.00
15630;DHT22;7914;50.842;0.166;2023-07-28T08:37:28;19.70;100.00
15630;DHT22;7914;50.842;0.166;2023-07-28T08:39:54;19.70;100.00
15630;DHT22;7914;50.842;0.166;2023-07-28T08:42:21;19.50;100.00
15630;DHT22;7914;50.842;0.166;2023-07-28T08:44:48;19.40;100.00
15630;DHT22;7914;50.842;0.166;2023-07-28T08:47:17;19.40;100.00
15630;DHT22;7914;50.842;0.166;2023-07-28T08:49:44;19.40;100.00
15630;DHT22;7914;50.842;0.166;2023-07-28T08:52:09;19.40;100.00
15630;DHT22;7914;50.842;0.166;2023-07-28T08:54:35;19.40;100.00
15630;DHT22;7914;50.842;0.166;2023-07-28T08:57:01;19.30;100.00
15630;DHT22;7914;50.842;0.166;2023-07-28T08:59:28;19.30;100.00
15630;DHT22;7914;50.842;0.166;2023-07-28T09:01:56;19.40;100.00
15630;DHT22;7914;50.842;0.166;2023-07-28T09:04:24;19.50;100.00
15630;DHT22;7914;50.842;0.166;2023-07-28T09:06:50;19.70;100.00
15630;DHT22;7914;50.842;0.166;2023-07-28T09:09:18;19.80;100.00
15630;DHT22;7914;50.842;0.166;2023-07-28T09:11:45;19.70;100.00
15630;DHT22;7914;50.842;0.166;2023-07-28T09:14:12;19.60;100.00
15630;DHT22;7914;50.842;0.166;2023-07-28T09:16:38;19.80;100.00
15630;DHT22;7914;50.842;0.166;2023-07-28T09:19:10;20.00;100.00
15630;DHT22;7914;50.842;0.166;2023-07-28T09:21:39;20.10;100.00
15630;DHT22;7914;50.842;0.166;2023-07-28T09:24:10;20.40;100.00
15630;DHT22;7914;50.842;0.166;2023-07-28T09:26:45;20.50;100.00
15630;DHT22;7914;50.842;0.166;2023-07-28T09:29:14;20.60;100.00
15630;DHT22;7914;50.842;0.166;2023-07-28T09:31:46;20.70;100.00
15630;DHT22;7914;50.842;0.166;2023-07-28T09:34:13;21.00;100.00
15630;DHT22;7914;50.842;0.166;2023-07-28T09:36:48;21.00;100.00
15630;DHT22;7914;50.842;0.166;2023-07-28T09:39:14;21.10;100.00
15630;DHT22;7914;50.842;0.166;2023-07-28T09:41:40;20.90;100.00
15630;DHT22;7914;50.842;0.166;2023-07-28T09:44:06;20.70;100.00
15630;DHT22;7914;50.842;0.166;2023-07-28T09:46:33;20.50;100.00
15630;DHT22;7914;50.842;0.166;2023-07-28T09:49:04;20.50;100.00
15630;DHT22;7914;50.842;0.166;2023-07-28T09:51:31;20.30;100.00
15630;DHT22;7914;50.842;0.166;2023-07-28T09:54:12;20.10;100.00
15630;DHT22;7914;50.842;0.166;2023-07-28T09:56:38;19.70;100.00
15630;DHT22;7914;50.842;0.166;2023-07-28T09:59:11;19.70;100.00
15630;DHT22;7914;50.842;0.166;2023-07-28T10:01:39;19.60;100.00
15630;DHT22;7914;50.842;0.166;2023-07-28T10:04:05;19.60;100.00
15630;DHT22;7914;50.842;0.166;2023-07-28T10:06:32;19.80;100.00
15630;DHT22;7914;50.842;0.166;2023-07-28T10:08:59;20.10;100.00
15630;DHT22;7914;50.842;0.166;2023-07-28T10:11:26;20.30;100.00
15630;DHT22;7914;50.842;0.166;2023-07-28T10:13:54;20.60;100.00
15630;DHT22;7914;50.842;0.166;2023-07-28T10:16:29;20.90;100.00
15630;DHT22;7914;50.842;0.166;2023-07-28T10:18:55;21.00;100.00
15630;DHT22;7914;50.842;0.166;2023-07-28T10:21:21;20.90;100.00
15630;DHT22;7914;50.842;0.166;2023-07-28T10:23:54;20.90;100.00
15630;DHT22;7914;50.842;0.166;2023-07-28T10:26:38;20.80;100.00
15630;DHT22;7914;50.842;0.166;2023-07-28T10:29:11;20.90;100.00
15630;DHT22;7914;50.842;0.166;2023-07-28T10:31:52;20.90;100.00
15630;DHT22;7914;50.842;0.166;2023-07-28T10:34:18;20.90;100.00
15630;DHT22;7914;50.842;0.166;2023-07-28T10:36:45;21.00;100.00
15630;DHT22;7914;50.842;0.166;2023-07-28T10:39:15;21.30;100.00
15630;DHT22;7914;50.842;0.166;2023-07-28T10:42:08;21.60;100.00
15630;DHT22;7914;50.842;0.166;2023-07-28T10:44:37;21.90;100.00
15630;DHT22;7914;50.842;0.166;2023-07-28T10:47:08;22.20;100.00
15630;DHT22;7914;50.842;0.166;2023-07-28T10:49:34;22.20;100.00
15630;DHT22;7914;50.842;0.166;2023-07-28T10:52:00;22.20;100.00
15630;DHT22;7914;50.842;0.166;2023-07-28T10:54:26;22.30;100.00
15630;DHT22;7914;50.842;0.166;2023-07-28T10:56:52;22.50;100.00
15630;DHT22;7914;50.842;0.166;2023-07-28T10:59:19;22.50;100.00
15630;DHT22;7914;50.842;0.166;2023-07-28T11:01:44;22.40;100.00
15630;DHT22;7914;50.842;0.166;2023-07-28T11:04:18;22.30;100.00
15630;DHT22;7914;50.842;0.166;2023-07-28T11:06:48;22.00;100.00
15630;DHT22;7914;50.842;0.166;2023-07-28T11:09:17;22.00;100.00
15630;DHT22;7914;50.842;0.166;2023-07-28T11:11:44;22.10;100.00
15630;DHT22;7914;50.842;0.166;2023-07-28T11:14:10;22.00;100.00
15630;DHT22;7914;50.842;0.166;2023-07-28T11:16:37;22.30;100.00
15630;DHT22;7914;50.842;0.166;2023-07-28T11:19:08;22.70;100.00
15630;DHT22;7914;50.842;0.166;2023-07-28T11:21:38;22.70;100.00
15630;DHT22;7914;50.842;0.166;2023-07-28T11:24:04;22.70;100.00
15630;DHT22;7914;50.842;0.166;2023-07-28T11:26:30;22.90;100.00
15630;DHT22;7914;50.842;0.166;2023-07-28T11:28:56;23.00;100.00
15630;DHT22;7914;50.842;0.166;2023-07-28T11:31:26;23.00;100.00
15630;DHT22;7914;50.842;0.166;2023-07-28T11:33:52;22.70;100.00
15630;DHT22;7914;50.842;0.166;2023-07-28T11:36:26;22.90;100.00
15630;DHT22;7914;50.842;0.166;2023-07-28T11:38:53;22.90;100.00
15630;DHT22;7914;50.842;0.166;2023-07-28T11:41:20;23.00;100.00
15630;DHT22;7914;50.842;0.166;2023-07-28T11:43:50;23.30;100.00
15630;DHT22;7914;50.842;0.166;2023-07-28T11:46:52;23.60;98.80
15630;DHT22;7914;50.842;0.166;2023-07-28T11:49:21;23.80;98.00
15630;DHT22;7914;50.842;0.166;2023-07-28T11:51:51;24.00;95.20
15630;DHT22;7914;50.842;0.166;2023-07-28T11:54:20;23.80;96.10
15630;DHT22;7914;50.842;0.166;2023-07-28T11:56:48;23.70;98.20
15630;DHT22;7914;50.842;0.166;2023-07-28T11:59:15;23.80;95.90
15630;DHT22;7914;50.842;0.166;2023-07-28T12:01:59;23.80;94.10
15630;DHT22;7914;50.842;0.166;2023-07-28T12:04:27;23.70;97.60
15630;DHT22;7914;50.842;0.166;2023-07-28T12:09:50;23.70;97.60
15630;DHT22;7914;50.842;0.166;2023-07-28T12:12:30;23.80;95.90
15630;DHT22;7914;50.842;0.166;2023-07-28T12:14:57;23.90;95.10
15630;DHT22;7914;50.842;0.166;2023-07-28T12:17:30;23.90;94.30
15630;DHT22;7914;50.842;0.166;2023-07-28T12:19:59;23.70;96.70
15630;DHT22;7914;50.842;0.166;2023-07-28T12:22:29;23.90;94.00
15630;DHT22;7914;50.842;0.166;2023-07-28T12:24:55;23.80;94.80
15630;DHT22;7914;50.842;0.166;2023-07-28T12:27:22;23.80;96.00
15630;DHT22;7914;50.842;0.166;2023-07-28T12:29:50;23.90;94.40
15630;DHT22;7914;50.842;0.166;2023-07-28T12:32:17;23.70;95.90
15630;DHT22;7914;50.842;0.166;2023-07-28T12:34:42;23.70;95.20
15630;DHT22;7914;50.842;0.166;2023-07-28T12:37:08;23.60;96.00
15630;DHT22;7914;50.842;0.166;2023-07-28T12:39:37;23.60;97.00
15630;DHT22;7914;50.842;0.166;2023-07-28T12:42:06;23.60;95.70
15630;DHT22;7914;50.842;0.166;2023-07-28T12:44:32;23.50;94.30
15630;DHT22;7914;50.842;0.166;2023-07-28T12:46:57;23.50;95.90
15630;DHT22;7914;50.842;0.166;2023-07-28T12:49:23;23.70;95.30
15630;DHT22;7914;50.842;0.166;2023-07-28T12:51:49;23.70;98.00
15630;DHT22;7914;50.842;0.166;2023-07-28T12:54:15;23.70;95.50
15630;DHT22;7914;50.842;0.166;2023-07-28T12:56:41;23.60;97.00
15630;DHT22;7914;50.842;0.166;2023-07-28T12:59:06;23.40;96.60
15630;DHT22;7914;50.842;0.166;2023-07-28T13:01:33;23.50;96.40
15630;DHT22;7914;50.842;0.166;2023-07-28T13:03:59;23.20;95.70
15630;DHT22;7914;50.842;0.166;2023-07-28T13:06:25;23.20;99.80
15630;DHT22;7914;50.842;0.166;2023-07-28T13:08:50;23.10;98.80
15630;DHT22;7914;50.842;0.166;2023-07-28T13:11:16;23.20;98.00
15630;DHT22;7914;50.842;0.166;2023-07-28T13:13:42;23.20;96.90
15630;DHT22;7914;50.842;0.166;2023-07-28T13:16:07;22.90;100.00
15630;DHT22;7914;50.842;0.166;2023-07-28T13:18:33;22.70;100.00
15630;DHT22;7914;50.842;0.166;2023-07-28T13:20:59;22.90;100.00
